sensor_id;sensor_type;location;lat;lon;timestamp;pressure;altitude;pressure_sealevel;temperature;humidity
6090;BME280;3073;42.660;23.316;2022-11-30T00:00:21;94593.53;;;4.06;100.00
6090;BME280;3073;42.660;23.316;2022-11-30T00:02:48;94588.88;;;4.03;100.00
6090;BME280;3073;42.660;23.316;2022-11-30T00:05:18;94591.81;;;4.20;100.00
6090;BME280;3073;42.660;23.316;2022-11-30T00:07:45;94596.84;;;4.20;100.00
6090;BME280;3073;42.660;23.316;2022-11-30T00:10:12;94590.63;;;4.29;100.00
6090;BME280;3073;42.660;23.316;2022-11-30T00:12:39;94601.69;;;4.34;100.00
6090;BME280;3073;42.660;23.316;2022-11-30T00:15:08;94598.59;;;4.32;100.00
6090;BME280;3073;42.660;23.316;2022-11-30T00:17:37;94605.00;;;4.35;100.00
6090;BME280;3073;42.660;23.316;2022-11-30T00:20:06;94604.81;;;4.36;100.00
6090;BME280;3073;42.660;23.316;2022-11-30T00:22:33;94597.25;;;4.36;100.00
6090;BME280;3073;42.660;23.316;2022-11-30T00:25:00;94607.34;;;4.43;100.00
6090;BME280;3073;42.660;23.316;2022-11-30T00:27:28;94616.09;;;4.40;100.00
6090;BME280;3073;42.660;23.316;2022-11-30T00:29:55;94608.88;;;4.37;100.00
6090;BME280;3073;42.660;23.316;2022-11-30T00:32:22;94609.09;;;4.29;100.00
6090;BME280;3073;42.660;23.316;2022-11-30T00:34:50;94608.88;;;4.24;100.00
6090;BME280;3073;42.660;23.316;2022-11-30T00:37:17;94609.88;;;4.30;100.00
6090;BME280;3073;42.660;23.316;2022-11-30T00:39:44;94610.66;;;4.30;100.00
6090;BME280;3073;42.660;23.316;2022-11-30T00:42:11;94609.66;;;4.31;100.00
6090;BME280;3073;42.660;23.316;2022-11-30T00:44:38;94610.44;;;4.25;100.00
6090;BME280;3073;42.660;23.316;2022-11-30T00:47:05;94605.22;;;4.33;100.00
6090;BME280;3073;42.660;23.316;2022-11-30T00:49:32;94603.81;;;4.24;100.00
6090;BME280;3073;42.660;23.316;2022-11-30T00:52:01;94604.03;;;4.16;100.00
6090;BME280;3073;42.660;23.316;2022-11-30T00:54:27;94600.16;;;4.13;100.00
6090;BME280;3073;42.660;23.316;2022-11-30T00:56:54;94600.91;;;4.14;100.00
6090;BME280;3073;42.660;23.316;2022-11-30T00:59:21;94595.28;;;4.12;100.00
6090;BME280;3073;42.660;23.316;2022-11-30T01:01:48;94597.59;;;4.00;100.00
6090;BME280;3073;42.660;23.316;2022-11-30T01:04:14;94606.16;;;4.06;100.00
6090;BME280;3073;42.660;23.316;2022-11-30T01:06:41;94597.03;;;4.05;100.00
6090;BME280;3073;42.660;23.316;2022-11-30T01:09:10;94595.28;;;3.92;100.00
6090;BME280;3073;42.660;23.316;2022-11-30T01:11:37;94596.84;;;4.00;100.00
6090;BME280;3073;42.660;23.316;2022-11-30T01:14:07;94589.25;;;4.00;100.00
6090;BME280;3073;42.660;23.316;2022-11-30T01:16:33;94597.03;;;4.05;100.00
6090;BME280;3073;42.660;23.316;2022-11-30T01:19:00;94595.47;;;4.04;100.00
6090;BME280;3073;42.660;23.316;2022-11-30T01:21:28;94592.53;;;4.07;100.00
6090;BME280;3073;42.660;23.316;2022-11-30T01:23:55;94591.00;;;4.06;100.00
6090;BME280;3073;42.660;23.316;2022-11-30T01:26:23;94583.63;;;4.11;100.00
6090;BME280;3073;42.660;23.316;2022-11-30T01:28:51;94585.75;;;4.14;100.00
6090;BME280;3073;42.660;23.316;2022-11-30T01:31:20;94588.09;;;4.09;100.00
6090;BME280;3073;42.660;23.316;2022-11-30T01:33:48;94582.44;;;4.07;100.00
6090;BME280;3073;42.660;23.316;2022-11-30T01:36:17;94579.34;;;3.98;100.00
6090;BME280;3073;42.660;23.316;2022-11-30T01:38:46;94585.97;;;3.93;100.00
6090;BME280;3073;42.660;23.316;2022-11-30T01:41:16;94584.41;;;3.98;100.00
6090;BME280;3073;42.660;23.316;2022-11-30T01:43:47;94589.06;;;3.95;100.00
6090;BME280;3073;42.660;23.316;2022-11-30T01:46:27;94582.44;;;3.87;100.00
6090;BME280;3073;42.660;23.316;2022-11-30T01:49:03;94587.09;;;3.90;100.00
6090;BME280;3073;42.660;23.316;2022-11-30T01:51:35;94584.00;;;3.88;100.00
6090;BME280;3073;42.660;23.316;2022-11-30T01:54:05;94580.69;;;3.88;100.00
6090;BME280;3073;42.660;23.316;2022-11-30T01:56:33;94580.13;;;3.92;100.00
6090;BME280;3073;42.660;23.316;2022-11-30T01:59:02;94577.22;;;3.89;100.00
6090;BME280;3073;42.660;23.316;2022-11-30T02:01:29;94572.34;;;3.94;100.00
6090;BME280;3073;42.660;23.316;2022-11-30T02:04:01;94570.81;;;3.93;100.00
6090;BME280;3073;42.660;23.316;2022-11-30T02:06:28;94570.81;;;3.86;100.00
6090;BME280;3073;42.660;23.316;2022-11-30T02:08:55;94575.47;;;3.83;100.00
6090;BME280;3073;42.660;23.316;2022-11-30T02:11:23;94571.78;;;3.85;100.00
6090;BME280;3073;42.660;23.316;2022-11-30T02:14:07;94567.88;;;3.76;100.00
6090;BME280;3073;42.660;23.316;2022-11-30T02:16:46;94564.38;;;3.71;100.00
6090;BME280;3073;42.660;23.316;2022-11-30T02:22:32;94562.63;;;3.71;100.00
6090;BME280;3073;42.660;23.316;2022-11-30T02:25:09;94567.28;;;3.74;100.00
6090;BME280;3073;42.660;23.316;2022-11-30T02:27:52;94564.19;;;3.79;100.00
6090;BME280;3073;42.660;23.316;2022-11-30T02:30:26;94557.41;;;3.86;100.00
6090;BME280;3073;42.660;23.316;2022-11-30T02:32:57;94559.34;;;3.84;100.00
6090;BME280;3073;42.660;23.316;2022-11-30T02:35:28;94559.53;;;3.82;100.00
6090;BME280;3073;42.660;23.316;2022-11-30T02:37:57;94551.34;;;3.74;100.00
6090;BME280;3073;42.660;23.316;2022-11-30T02:40:25;94560.09;;;3.64;100.00
6090;BME280;3073;42.660;23.316;2022-11-30T02:42:55;94556.03;;;3.63;100.00
6090;BME280;3073;42.660;23.316;2022-11-30T02:45:30;94558.50;;;3.50;100.00
6090;BME280;3073;42.660;23.316;2022-11-30T02:48:04;94547.03;;;3.41;100.00
6090;BME280;3073;42.660;23.316;2022-11-30T02:50:38;94545.13;;;3.43;100.00
6090;BME280;3073;42.660;23.316;2022-11-30T02:53:07;94560.59;;;3.40;100.00
6090;BME280;3073;42.660;23.316;2022-11-30T02:55:34;94553.66;;;3.42;100.00
6090;BME280;3073;42.660;23.316;2022-11-30T02:58:02;94554.81;;;3.40;100.00
6090;BME280;3073;42.660;23.316;2022-11-30T03:00:30;94550.56;;;3.47;100.00
6090;BME280;3073;42.660;23.316;2022-11-30T03:02:57;94549.38;;;3.36;100.00
6090;BME280;3073;42.660;23.316;2022-11-30T03:05:24;94552.09;;;3.41;100.00
6090;BME280;3073;42.660;23.316;2022-11-30T03:07:51;94551.31;;;3.41;100.00
6090;BME280;3073;42.660;23.316;2022-11-30T03:10:17;94544.91;;;3.38;100.00
6090;BME280;3073;42.660;23.316;2022-11-30T03:12:44;94546.88;;;3.49;100.00
6090;BME280;3073;42.660;23.316;2022-11-30T03:15:12;94542.38;;;3.38;100.00
6090;BME280;3073;42.660;23.316;2022-11-30T03:17:40;94545.44;;;3.27;100.00
6090;BME280;3073;42.660;23.316;2022-11-30T03:20:09;94543.94;;;3.33;100.00
6090;BME280;3073;42.660;23.316;2022-11-30T03:22:36;94537.16;;;3.33;100.00
6090;BME280;3073;42.660;23.316;2022-11-30T03:25:04;94541.81;;;3.43;100.00
6090;BME280;3073;42.660;23.316;2022-11-30T03:27:31;94542.22;;;3.46;100.00
6090;BME280;3073;42.660;23.316;2022-11-30T03:29:57;94534.66;;;3.46;100.00
6090;BME280;3073;42.660;23.316;2022-11-30T03:32:24;94538.53;;;3.42;100.00
6090;BME280;3073;42.660;23.316;2022-11-30T03:34:52;94550.91;;;3.44;100.00
6090;BME280;3073;42.660;23.316;2022-11-30T03:37:19;94547.41;;;3.32;100.00
6090;BME280;3073;42.660;23.316;2022-11-30T03:39:46;94541.44;;;3.52;100.00
6090;BME280;3073;42.660;23.316;2022-11-30T03:42:13;94545.13;;;3.43;100.00
6090;BME280;3073;42.660;23.316;2022-11-30T03:44:39;94543.53;;;3.36;100.00
6090;BME280;3073;42.660;23.316;2022-11-30T03:47:06;94545.13;;;3.37;100.00
6090;BME280;3073;42.660;23.316;2022-11-30T03:49:33;94556.38;;;3.47;100.00
6090;BME280;3073;42.660;23.316;2022-11-30T03:52:01;94549.38;;;3.43;100.00
6090;BME280;3073;42.660;23.316;2022-11-30T03:54:28;94548.00;;;3.40;100.00
6090;BME280;3073;42.660;23.316;2022-11-30T03:56:55;94550.91;;;3.37;100.00
6090;BME280;3073;42.660;23.316;2022-11-30T03:59:22;94547.03;;;3.41;100.00
6090;BME280;3073;42.660;23.316;2022-11-30T04:01:49;94551.91;;;3.43;100.00
6090;BME280;3073;42.660;23.316;2022-11-30T04:04:16;94546.66;;;3.38;100.00
6090;BME280;3073;42.660;23.316;2022-11-30T04:06:43;94548.00;;;3.40;100.00
6090;BME280;3073;42.660;23.316;2022-11-30T04:09:12;94552.28;;;3.40;100.00
6090;BME280;3073;42.660;23.316;2022-11-30T04:11:39;94544.72;;;3.33;100.00
6090;BME280;3073;42.660;23.316;2022-11-30T04:14:06;94551.69;;;3.38;100.00
6090;BME280;3073;42.660;23.316;2022-11-30T04:16:34;94550.91;;;3.37;100.00
6090;BME280;3073;42.660;23.316;2022-11-30T04:19:01;94556.34;;;3.34;100.00
6090;BME280;3073;42.660;23.316;2022-11-30T04:21:28;94554.41;;;3.36;100.00
6090;BME280;3073;42.660;23.316;2022-11-30T04:23:57;94566.25;;;3.42;100.00
6090;BME280;3073;42.660;23.316;2022-11-30T04:26:25;94561.19;;;3.36;100.00
6090;BME280;3073;42.660;23.316;2022-11-30T04:28:52;94567.03;;;3.36;100.00
6090;BME280;3073;42.660;23.316;2022-11-30T04:31:19;94569.34;;;3.38;100.00
6090;BME280;3073;42.660;23.316;2022-11-30T04:33:46;94564.69;;;3.41;100.00
6090;BME280;3073;42.660;23.316;2022-11-30T04:36:17;94563.72;;;3.42;100.00
6090;BME280;3073;42.660;23.316;2022-11-30T04:38:44;94560.66;;;3.47;100.00
6090;BME280;3073;42.660;23.316;2022-11-30T04:41:11;94556.34;;;3.41;100.00
6090;BME280;3073;42.660;23.316;2022-11-30T04:43:40;94556.16;;;3.36;100.00
6090;BME280;3073;42.660;23.316;2022-11-30T04:46:07;94563.38;;;3.52;100.00
6090;BME280;3073;42.660;23.316;2022-11-30T04:48:35;94565.31;;;3.50;100.00
6090;BME280;3073;42.660;23.316;2022-11-30T04:51:02;94569.75;;;3.41;100.00
6090;BME280;3073;42.660;23.316;2022-11-30T04:53:30;94561.78;;;3.38;100.00
6090;BME280;3073;42.660;23.316;2022-11-30T04:55:57;94566.81;;;3.38;100.00
6090;BME280;3073;42.660;23.316;2022-11-30T04:58:24;94573.44;;;3.45;100.00
6090;BME280;3073;42.660;23.316;2022-11-30T05:00:54;94567.63;;;3.51;100.00
6090;BME280;3073;42.660;23.316;2022-11-30T05:03:21;94573.63;;;3.44;100.00
6090;BME280;3073;42.660;23.316;2022-11-30T05:05:48;94574.78;;;3.41;100.00
6090;BME280;3073;42.660;23.316;2022-11-30T05:08:16;94568.97;;;3.47;100.00
6090;BME280;3073;42.660;23.316;2022-11-30T05:10:43;94569.56;;;3.49;100.00
6090;BME280;3073;42.660;23.316;2022-11-30T05:13:09;94571.31;;;3.49;100.00
6090;BME280;3073;42.660;23.316;2022-11-30T05:15:36;94568.78;;;3.42;100.00
6090;BME280;3073;42.660;23.316;2022-11-30T05:18:05;94577.91;;;3.43;100.00
6090;BME280;3073;42.660;23.316;2022-11-30T05:20:32;94581.81;;;3.52;100.00
6090;BME280;3073;42.660;23.316;2022-11-30T05:22:59;94580.84;;;3.53;100.00
6090;BME280;3073;42.660;23.316;2022-11-30T05:25:26;94577.53;;;3.53;100.00
6090;BME280;3073;42.660;23.316;2022-11-30T05:27:53;94574.03;;;3.54;100.00
6090;BME280;3073;42.660;23.316;2022-11-30T05:30:20;94575.81;;;3.53;100.00
6090;BME280;3073;42.660;23.316;2022-11-30T05:32:48;94576.53;;;3.47;100.00
6090;BME280;3073;42.660;23.316;2022-11-30T05:35:18;94578.69;;;3.50;100.00
6090;BME280;3073;42.660;23.316;2022-11-30T05:37:45;94579.84;;;3.54;100.00
6090;BME280;3073;42.660;23.316;2022-11-30T05:40:12;94592.06;;;3.51;100.00
6090;BME280;3073;42.660;23.316;2022-11-30T05:42:39;94587.81;;;3.58;100.00
6090;BME280;3073;42.660;23.316;2022-11-30T05:45:07;94588.31;;;3.34;100.00
6090;BME280;3073;42.660;23.316;2022-11-30T05:47:35;94601.69;;;3.28;100.00
6090;BME280;3073;42.660;23.316;2022-11-30T05:50:02;94594.94;;;3.41;100.00
6090;BME280;3073;42.660;23.316;2022-11-30T05:52:30;94598.63;;;3.32;100.00
6090;BME280;3073;42.660;23.316;2022-11-30T05:54:58;94593.53;;;3.26;100.00
6090;BME280;3073;42.660;23.316;2022-11-30T05:57:25;94598.56;;;3.19;100.00
6090;BME280;3073;42.660;23.316;2022-11-30T05:59:52;94606.31;;;3.18;100.00
6090;BME280;3073;42.660;23.316;2022-11-30T06:02:19;94613.50;;;3.27;100.00
6090;BME280;3073;42.660;23.316;2022-11-30T06:04:46;94604.50;;;3.52;100.00
6090;BME280;3073;42.660;23.316;2022-11-30T06:07:14;94610.31;;;3.46;100.00
6090;BME280;3073;42.660;23.316;2022-11-30T06:09:42;94613.38;;;3.42;100.00
6090;BME280;3073;42.660;23.316;2022-11-30T06:12:09;94616.63;;;3.29;100.00
6090;BME280;3073;42.660;23.316;2022-11-30T06:14:36;94620.16;;;3.41;100.00
6090;BME280;3073;42.660;23.316;2022-11-30T06:17:03;94626.03;;;3.55;100.00
6090;BME280;3073;42.660;23.316;2022-11-30T06:19:31;94628.91;;;3.45;100.00
6090;BME280;3073;42.660;23.316;2022-11-30T06:21:59;94628.50;;;3.35;100.00
6090;BME280;3073;42.660;23.316;2022-11-30T06:24:26;94626.94;;;3.34;100.00
6090;BME280;3073;42.660;23.316;2022-11-30T06:26:55;94622.25;;;3.31;100.00
6090;BME280;3073;42.660;23.316;2022-11-30T06:29:22;94623.03;;;3.32;100.00
6090;BME280;3073;42.660;23.316;2022-11-30T06:31:50;94622.50;;;3.36;100.00
6090;BME280;3073;42.660;23.316;2022-11-30T06:34:17;94623.06;;;3.38;100.00
6090;BME280;3073;42.660;23.316;2022-11-30T06:36:44;94625.16;;;3.28;100.00
6090;BME280;3073;42.660;23.316;2022-11-30T06:39:11;94628.06;;;3.25;100.00
6090;BME280;3073;42.660;23.316;2022-11-30T06:41:39;94626.94;;;3.34;100.00
6090;BME280;3073;42.660;23.316;2022-11-30T06:44:08;94626.38;;;3.39;100.00
6090;BME280;3073;42.660;23.316;2022-11-30T06:46:35;94632.38;;;3.38;100.00
6090;BME280;3073;42.660;23.316;2022-11-30T06:49:02;94646.75;;;3.44;100.00
6090;BME280;3073;42.660;23.316;2022-11-30T06:51:30;94643.06;;;3.40;100.00
6090;BME280;3073;42.660;23.316;2022-11-30T06:53:57;94635.94;;;3.56;100.00
6090;BME280;3073;42.660;23.316;2022-11-30T06:56:24;94620.22;;;3.61;100.00
6090;BME280;3073;42.660;23.316;2022-11-30T06:58:52;94625.66;;;3.58;100.00
6090;BME280;3073;42.660;23.316;2022-11-30T07:01:23;94631.53;;;3.72;100.00
6090;BME280;3073;42.660;23.316;2022-11-30T07:03:50;94628.81;;;3.67;100.00
6090;BME280;3073;42.660;23.316;2022-11-30T07:06:17;94620.63;;;3.64;100.00
6090;BME280;3073;42.660;23.316;2022-11-30T07:08:44;94618.13;;;3.78;100.00
6090;BME280;3073;42.660;23.316;2022-11-30T07:11:12;94619.66;;;3.66;100.00
6090;BME280;3073;42.660;23.316;2022-11-30T07:13:39;94624.50;;;3.67;100.00
6090;BME280;3073;42.660;23.316;2022-11-30T07:16:07;94623.16;;;3.64;100.00
6090;BME280;3073;42.660;23.316;2022-11-30T07:18:37;94628.63;;;3.75;100.00
6090;BME280;3073;42.660;23.316;2022-11-30T07:21:06;94623.41;;;3.83;100.00
6090;BME280;3073;42.660;23.316;2022-11-30T07:23:33;94620.47;;;3.79;100.00
6090;BME280;3073;42.660;23.316;2022-11-30T07:26:17;94624.75;;;3.79;100.00
6090;BME280;3073;42.660;23.316;2022-11-30T07:28:45;94624.72;;;3.72;100.00
6090;BME280;3073;42.660;23.316;2022-11-30T07:31:16;94630.19;;;3.82;100.00
6090;BME280;3073;42.660;23.316;2022-11-30T07:33:45;94630.75;;;3.78;100.00
6090;BME280;3073;42.660;23.316;2022-11-30T07:36:13;94633.09;;;3.79;100.00
6090;BME280;3073;42.660;23.316;2022-11-30T07:38:40;94630.97;;;3.89;100.00
6090;BME280;3073;42.660;23.316;2022-11-30T07:41:08;94633.66;;;3.75;100.00
6090;BME280;3073;42.660;23.316;2022-11-30T07:43:35;94629.22;;;3.83;100.00
6090;BME280;3073;42.660;23.316;2022-11-30T07:46:02;94627.69;;;3.89;100.00
6090;BME280;3073;42.660;23.316;2022-11-30T07:48:29;94625.53;;;3.79;100.00
6090;BME280;3073;42.660;23.316;2022-11-30T07:51:03;94628.59;;;3.68;100.00
6090;BME280;3073;42.660;23.316;2022-11-30T07:53:30;94634.03;;;3.65;100.00
6090;BME280;3073;42.660;23.316;2022-11-30T07:56:01;94633.66;;;3.75;100.00
6090;BME280;3073;42.660;23.316;2022-11-30T07:58:28;94633.69;;;3.88;100.00
6090;BME280;3073;42.660;23.316;2022-11-30T08:01:00;94632.91;;;3.87;100.00
6090;BME280;3073;42.660;23.316;2022-11-30T08:03:28;94634.44;;;3.82;100.00
6090;BME280;3073;42.660;23.316;2022-11-30T08:05:59;94631.34;;;3.80;100.00
6090;BME280;3073;42.660;23.316;2022-11-30T08:08:30;94626.31;;;3.86;100.00
6090;BME280;3073;42.660;23.316;2022-11-30T08:10:57;94626.53;;;3.98;100.00
6090;BME280;3073;42.660;23.316;2022-11-30T08:13:25;94629.81;;;3.98;100.00
6090;BME280;3073;42.660;23.316;2022-11-30T08:15:51;94633.91;;;3.99;100.00
6090;BME280;3073;42.660;23.316;2022-11-30T08:18:20;94634.47;;;3.95;100.00
6090;BME280;3073;42.660;23.316;2022-11-30T08:20:47;94639.56;;;4.08;100.00
6090;BME280;3073;42.660;23.316;2022-11-30T08:23:14;94630.41;;;4.07;100.00
6090;BME280;3073;42.660;23.316;2022-11-30T08:25:42;94636.06;;;4.09;100.00
6090;BME280;3073;42.660;23.316;2022-11-30T08:28:09;94640.72;;;4.12;100.00
6090;BME280;3073;42.660;23.316;2022-11-30T08:30:36;94636.81;;;3.96;100.00
6090;BME280;3073;42.660;23.316;2022-11-30T08:33:02;94636.63;;;3.98;100.00
6090;BME280;3073;42.660;23.316;2022-11-30T08:35:32;94632.34;;;4.05;100.00
6090;BME280;3073;42.660;23.316;2022-11-30T08:37:59;94642.06;;;4.01;100.00
6090;BME280;3073;42.660;23.316;2022-11-30T08:40:26;94648.66;;;3.96;100.00
6090;BME280;3073;42.660;23.316;2022-11-30T08:42:58;94641.88;;;3.90;100.00
6090;BME280;3073;42.660;23.316;2022-11-30T08:45:25;94645.91;;;3.91;100.00
6090;BME280;3073;42.660;23.316;2022-11-30T08:47:53;94638.75;;;4.01;100.00
6090;BME280;3073;42.660;23.316;2022-11-30T08:50:20;94641.09;;;3.96;100.00
6090;BME280;3073;42.660;23.316;2022-11-30T08:52:47;94636.22;;;3.94;100.00
6090;BME280;3073;42.660;23.316;2022-11-30T08:55:15;94642.66;;;3.97;100.00
6090;BME280;3073;42.660;23.316;2022-11-30T08:57:42;94642.66;;;3.97;100.00
6090;BME280;3073;42.660;23.316;2022-11-30T09:00:12;94639.56;;;4.08;100.00
6090;BME280;3073;42.660;23.316;2022-11-30T09:02:38;94650.03;;;4.05;100.00
6090;BME280;3073;42.660;23.316;2022-11-30T09:05:06;94647.91;;;4.02;100.00
6090;BME280;3073;42.660;23.316;2022-11-30T09:07:33;94650.81;;;4.05;100.00
6090;BME280;3073;42.660;23.316;2022-11-30T09:09:59;94651.22;;;4.09;100.00
6090;BME280;3073;42.660;23.316;2022-11-30T09:12:26;94662.88;;;4.10;100.00
6090;BME280;3073;42.660;23.316;2022-11-30T09:14:53;94655.06;;;4.05;100.00
6090;BME280;3073;42.660;23.316;2022-11-30T09:17:22;94653.13;;;4.07;100.00
6090;BME280;3073;42.660;23.316;2022-11-30T09:19:48;94657.63;;;4.18;100.00
6090;BME280;3073;42.660;23.316;2022-11-30T09:22:15;94650.03;;;4.18;100.00
6090;BME280;3073;42.660;23.316;2022-11-30T09:24:42;94649.66;;;4.14;100.00
6090;BME280;3073;42.660;23.316;2022-11-30T09:27:09;94661.88;;;4.11;100.00
6090;BME280;3073;42.660;23.316;2022-11-30T09:29:36;94658.78;;;4.15;100.00
6090;BME280;3073;42.660;23.316;2022-11-30T09:32:03;94665.19;;;4.18;100.00
6090;BME280;3073;42.660;23.316;2022-11-30T09:34:32;94666.75;;;4.19;100.00
6090;BME280;3073;42.660;23.316;2022-11-30T09:36:59;94662.66;;;4.18;100.00
6090;BME280;3073;42.660;23.316;2022-11-30T09:39:26;94657.84;;;4.17;100.00
6090;BME280;3073;42.660;23.316;2022-11-30T09:45:06;94666.75;;;4.19;100.00
6090;BME280;3073;42.660;23.316;2022-11-30T09:48:04;94666.75;;;4.19;100.00
6090;BME280;3073;42.660;23.316;2022-11-30T09:50:39;94675.13;;;4.20;100.00
6090;BME280;3073;42.660;23.316;2022-11-30T09:53:17;94672.59;;;4.26;100.00
6090;BME280;3073;42.660;23.316;2022-11-30T09:55:46;94662.13;;;4.29;100.00
6090;BME280;3073;42.660;23.316;2022-11-30T09:58:22;94656.28;;;4.29;100.00
6090;BME280;3073;42.660;23.316;2022-11-30T10:00:53;94653.19;;;4.40;100.00
6090;BME280;3073;42.660;23.316;2022-11-30T10:03:21;94657.63;;;4.44;100.00
6090;BME280;3073;42.660;23.316;2022-11-30T10:05:55;94652.97;;;4.48;100.00
6090;BME280;3073;42.660;23.316;2022-11-30T10:08:34;94648.91;;;4.53;100.00
6090;BME280;3073;42.660;23.316;2022-11-30T10:11:26;94653.97;;;4.40;100.00
6090;BME280;3073;42.660;23.316;2022-11-30T10:14:03;94645.00;;;4.38;100.00
6090;BME280;3073;42.660;23.316;2022-11-30T10:16:38;94646.19;;;4.42;100.00
6090;BME280;3073;42.660;23.316;2022-11-30T10:19:22;94642.31;;;4.46;100.00
6090;BME280;3073;42.660;23.316;2022-11-30T10:22:05;94637.66;;;4.36;100.00
6090;BME280;3073;42.660;23.316;2022-11-30T10:24:50;94640.94;;;4.43;100.00
6090;BME280;3073;42.660;23.316;2022-11-30T10:27:32;94616.66;;;4.42;100.00
6090;BME280;3073;42.660;23.316;2022-11-30T10:30:02;94619.97;;;4.56;100.00
6090;BME280;3073;42.660;23.316;2022-11-30T10:32:47;94616.66;;;4.42;100.00
6090;BME280;3073;42.660;23.316;2022-11-30T10:35:20;94626.94;;;4.54;100.00
6090;BME280;3073;42.660;23.316;2022-11-30T10:37:50;94630.84;;;4.50;100.00
6090;BME280;3073;42.660;23.316;2022-11-30T10:40:25;94625.97;;;4.48;100.00
6090;BME280;3073;42.660;23.316;2022-11-30T10:43:04;94624.63;;;4.52;100.00
6090;BME280;3073;42.660;23.316;2022-11-30T10:45:32;94615.69;;;4.43;100.00
6090;BME280;3073;42.660;23.316;2022-11-30T10:48:10;94617.03;;;4.39;100.00
6090;BME280;3073;42.660;23.316;2022-11-30T10:50:39;94627.16;;;4.39;100.00
6090;BME280;3073;42.660;23.316;2022-11-30T10:53:10;94614.69;;;4.44;100.00
6090;BME280;3073;42.660;23.316;2022-11-30T10:55:41;94600.34;;;4.38;100.00
6090;BME280;3073;42.660;23.316;2022-11-30T10:58:14;94611.03;;;4.53;100.00
6090;BME280;3073;42.660;23.316;2022-11-30T11:00:49;94618.00;;;4.51;100.00
6090;BME280;3073;42.660;23.316;2022-11-30T11:03:22;94609.25;;;4.54;100.00
6090;BME280;3073;42.660;23.316;2022-11-30T11:06:02;94610.03;;;4.54;100.00
6090;BME280;3073;42.660;23.316;2022-11-30T11:08:32;94600.13;;;4.53;100.00
6090;BME280;3073;42.660;23.316;2022-11-30T11:10:59;94595.25;;;4.58;100.00
6090;BME280;3073;42.660;23.316;2022-11-30T11:13:36;94598.56;;;4.58;100.00
6090;BME280;3073;42.660;23.316;2022-11-30T11:16:05;94598.78;;;4.57;100.00
6090;BME280;3073;42.660;23.316;2022-11-30T11:25:21;94589.25;;;4.46;100.00
6090;BME280;3073;42.660;23.316;2022-11-30T11:27:51;94596.06;;;4.45;100.00
6090;BME280;3073;42.660;23.316;2022-11-30T11:30:27;94594.88;;;4.54;100.00
6090;BME280;3073;42.660;23.316;2022-11-30T11:32:59;94592.75;;;4.51;100.00
6090;BME280;3073;42.660;23.316;2022-11-30T11:38:48;94592.56;;;4.59;100.00
6090;BME280;3073;42.660;23.316;2022-11-30T11:41:20;94601.50;;;4.49;100.00
6090;BME280;3073;42.660;23.316;2022-11-30T11:43:57;94599.16;;;4.54;100.00
6090;BME280;3073;42.660;23.316;2022-11-30T11:46:25;94606.34;;;4.50;100.00
6090;BME280;3073;42.660;23.316;2022-11-30T11:48:57;94603.25;;;4.48;100.00
6090;BME280;3073;42.660;23.316;2022-11-30T11:51:29;94602.28;;;4.49;100.00
6090;BME280;3073;42.660;23.316;2022-11-30T11:54:34;94590.59;;;4.55;100.00
6090;BME280;3073;42.660;23.316;2022-11-30T11:57:06;94591.56;;;4.47;100.00
6090;BME280;3073;42.660;23.316;2022-11-30T11:59:39;94604.59;;;4.57;100.00
6090;BME280;3073;42.660;23.316;2022-11-30T12:02:16;94602.28;;;4.56;100.00
6090;BME280;3073;42.660;23.316;2022-11-30T12:04:48;94599.53;;;4.64;100.00
6090;BME280;3073;42.660;23.316;2022-11-30T12:07:21;94603.44;;;4.66;100.00
6090;BME280;3073;42.660;23.316;2022-11-30T12:26:44;94614.66;;;4.84;100.00
6090;BME280;3073;42.660;23.316;2022-11-30T12:29:21;94613.91;;;4.83;100.00
6090;BME280;3073;42.660;23.316;2022-11-30T12:32:09;94624.56;;;4.92;100.00
6090;BME280;3073;42.660;23.316;2022-11-30T12:34:48;94626.13;;;4.93;100.00
6090;BME280;3073;42.660;23.316;2022-11-30T12:37:28;94626.91;;;4.87;100.00
6090;BME280;3073;42.660;23.316;2022-11-30T12:40:02;94613.88;;;4.90;100.00
6090;BME280;3073;42.660;23.316;2022-11-30T12:42:40;94622.44;;;4.89;100.00
6090;BME280;3073;42.660;23.316;2022-11-30T12:45:14;94620.88;;;4.88;100.00
6090;BME280;3073;42.660;23.316;2022-11-30T12:47:56;94629.81;;;4.84;100.00
6090;BME280;3073;42.660;23.316;2022-11-30T12:50:37;94630.22;;;4.81;100.00
6090;BME280;3073;42.660;23.316;2022-11-30T12:53:14;94634.88;;;4.84;100.00
6090;BME280;3073;42.660;23.316;2022-11-30T12:55:46;94630.03;;;4.89;100.00
6090;BME280;3073;42.660;23.316;2022-11-30T12:58:24;94637.78;;;4.87;100.00
6090;BME280;3073;42.660;23.316;2022-11-30T13:01:06;94630.41;;;4.86;100.00
6090;BME280;3073;42.660;23.316;2022-11-30T13:03:42;94626.53;;;4.83;100.00
6090;BME280;3073;42.660;23.316;2022-11-30T13:06:15;94643.44;;;4.89;100.00
6090;BME280;3073;42.660;23.316;2022-11-30T13:08:51;94640.72;;;4.84;100.00
6090;BME280;3073;42.660;23.316;2022-11-30T13:11:24;94639.19;;;4.83;100.00
6090;BME280;3073;42.660;23.316;2022-11-30T13:13:58;94635.09;;;4.82;100.00
6090;BME280;3073;42.660;23.316;2022-11-30T13:16:27;94628.47;;;4.88;100.00
6090;BME280;3073;42.660;23.316;2022-11-30T13:18:59;94630.97;;;4.88;100.00
6090;BME280;3073;42.660;23.316;2022-11-30T13:21:30;94637.22;;;4.85;100.00
6090;BME280;3073;42.660;23.316;2022-11-30T13:24:03;94635.66;;;4.91;100.00
6090;BME280;3073;42.660;23.316;2022-11-30T13:26:37;94630.59;;;4.91;100.00
6090;BME280;3073;42.660;23.316;2022-11-30T13:29:26;94637.78;;;4.94;100.00
6090;BME280;3073;42.660;23.316;2022-11-30T13:32:01;94624.00;;;4.90;100.00
6090;BME280;3073;42.660;23.316;2022-11-30T13:34:32;94630.19;;;4.94;100.00
6090;BME280;3073;42.660;23.316;2022-11-30T13:37:01;94620.88;;;4.88;100.00
6090;BME280;3073;42.660;23.316;2022-11-30T13:42:37;94620.28;;;4.92;100.00
6090;BME280;3073;42.660;23.316;2022-11-30T13:45:26;94619.31;;;4.93;100.00
6090;BME280;3073;42.660;23.316;2022-11-30T13:47:55;94624.53;;;5.05;100.00
6090;BME280;3073;42.660;23.316;2022-11-30T13:50:31;94619.13;;;4.95;100.00
6090;BME280;3073;42.660;23.316;2022-11-30T13:53:22;94613.09;;;4.96;100.00
6090;BME280;3073;42.660;23.316;2022-11-30T13:55:54;94615.41;;;4.91;100.00
6090;BME280;3073;42.660;23.316;2022-11-30T13:58:22;94617.38;;;4.95;100.00
6090;BME280;3073;42.660;23.316;2022-11-30T14:01:16;94610.19;;;4.92;100.00